sensor_id;sensor_type;location;lat;lon;timestamp;pressure;altitude;pressure_sealevel;temperature;humidity
17615;BME280;8926;49.720;6.576;2022-07-05T00:00:00;100124.84;;;19.78;51.37
17615;BME280;8926;49.720;6.576;2022-07-05T00:02:25;100120.13;;;19.72;52.45
17615;BME280;8926;49.720;6.576;2022-07-05T00:04:51;100126.66;;;19.68;52.40
17615;BME280;8926;49.720;6.576;2022-07-05T00:07:18;100126.50;;;19.59;52.88
17615;BME280;8926;49.720;6.576;2022-07-05T00:09:45;100119.19;;;19.52;53.44
17615;BME280;8926;49.720;6.576;2022-07-05T00:12:11;100124.19;;;19.45;53.90
17615;BME280;8926;49.720;6.576;2022-07-05T00:14:38;100120.84;;;19.43;53.56
17615;BME280;8926;49.720;6.576;2022-07-05T00:17:04;100118.00;;;19.35;52.84
17615;BME280;8926;49.720;6.576;2022-07-05T00:19:29;100121.63;;;19.34;52.55
17615;BME280;8926;49.720;6.576;2022-07-05T00:21:55;100125.78;;;19.27;54.02
17615;BME280;8926;49.720;6.576;2022-07-05T00:24:20;100127.47;;;19.28;54.28
17615;BME280;8926;49.720;6.576;2022-07-05T00:26:46;100124.94;;;19.26;55.35
17615;BME280;8926;49.720;6.576;2022-07-05T00:29:11;100124.66;;;19.20;54.61
17615;BME280;8926;49.720;6.576;2022-07-05T00:31:36;100126.84;;;19.15;55.03
17615;BME280;8926;49.720;6.576;2022-07-05T00:34:02;100130.16;;;19.07;54.49
17615;BME280;8926;49.720;6.576;2022-07-05T00:36:27;100127.63;;;19.06;54.60
17615;BME280;8926;49.720;6.576;2022-07-05T00:38:52;100124.28;;;19.04;54.85
17615;BME280;8926;49.720;6.576;2022-07-05T00:41:17;100131.22;;;18.95;55.38
17615;BME280;8926;49.720;6.576;2022-07-05T00:43:57;100123.94;;;18.87;55.59
17615;BME280;8926;49.720;6.576;2022-07-05T00:46:24;100124.69;;;18.78;55.81
17615;BME280;8926;49.720;6.576;2022-07-05T00:48:49;100123.28;;;18.74;54.98
17615;BME280;8926;49.720;6.576;2022-07-05T00:51:15;100120.44;;;18.66;55.41
17615;BME280;8926;49.720;6.576;2022-07-05T00:53:42;100120.44;;;18.66;55.81
17615;BME280;8926;49.720;6.576;2022-07-05T00:56:09;100124.31;;;18.62;55.83
17615;BME280;8926;49.720;6.576;2022-07-05T00:58:35;100122.66;;;18.61;54.88
17615;BME280;8926;49.720;6.576;2022-07-05T01:01:02;100125.75;;;18.66;55.00
17615;BME280;8926;49.720;6.576;2022-07-05T01:03:28;100127.44;;;18.67;55.05
17615;BME280;8926;49.720;6.576;2022-07-05T01:05:54;100131.03;;;18.66;55.59
17615;BME280;8926;49.720;6.576;2022-07-05T01:08:21;100124.06;;;18.65;55.81
17615;BME280;8926;49.720;6.576;2022-07-05T01:10:47;100124.91;;;18.66;55.20
17615;BME280;8926;49.720;6.576;2022-07-05T01:13:13;100122.66;;;18.61;55.81
17615;BME280;8926;49.720;6.576;2022-07-05T01:15:39;100123.13;;;18.55;56.07
17615;BME280;8926;49.720;6.576;2022-07-05T01:18:06;100121.44;;;18.54;55.61
17615;BME280;8926;49.720;6.576;2022-07-05T01:20:31;100117.81;;;18.55;55.48
17615;BME280;8926;49.720;6.576;2022-07-05T01:22:58;100126.84;;;18.52;55.29
17615;BME280;8926;49.720;6.576;2022-07-05T01:25:30;100124.72;;;18.46;55.47
17615;BME280;8926;49.720;6.576;2022-07-05T01:27:58;100122.22;;;18.45;55.82
17615;BME280;8926;49.720;6.576;2022-07-05T01:30:24;100136.13;;;18.47;55.51
17615;BME280;8926;49.720;6.576;2022-07-05T01:32:50;100133.81;;;18.33;56.59
17615;BME280;8926;49.720;6.576;2022-07-05T01:35:18;100134.81;;;18.20;56.70
17615;BME280;8926;49.720;6.576;2022-07-05T01:37:49;100138.41;;;18.19;57.08
17615;BME280;8926;49.720;6.576;2022-07-05T01:40:15;100140.50;;;18.16;57.58
17615;BME280;8926;49.720;6.576;2022-07-05T01:42:40;100140.63;;;18.14;56.32
17615;BME280;8926;49.720;6.576;2022-07-05T01:45:06;100148.09;;;18.09;57.95
17615;BME280;8926;49.720;6.576;2022-07-05T01:47:40;100143.03;;;18.06;57.30
17615;BME280;8926;49.720;6.576;2022-07-05T01:50:07;100145.22;;;18.01;58.29
17615;BME280;8926;49.720;6.576;2022-07-05T01:52:36;100159.88;;;17.94;57.94
17615;BME280;8926;49.720;6.576;2022-07-05T01:55:03;100154.88;;;17.91;58.58
17615;BME280;8926;49.720;6.576;2022-07-05T01:57:28;100152.22;;;17.91;57.91
17615;BME280;8926;49.720;6.576;2022-07-05T01:59:54;100164.09;;;17.96;57.35
17615;BME280;8926;49.720;6.576;2022-07-05T02:02:19;100153.88;;;18.03;56.34
17615;BME280;8926;49.720;6.576;2022-07-05T02:04:44;100150.25;;;18.04;57.19
17615;BME280;8926;49.720;6.576;2022-07-05T02:07:10;100153.88;;;18.03;56.96
17615;BME280;8926;49.720;6.576;2022-07-05T02:09:36;100164.94;;;17.97;57.58
17615;BME280;8926;49.720;6.576;2022-07-05T02:12:03;100159.88;;;17.94;56.81
17615;BME280;8926;49.720;6.576;2022-07-05T02:14:29;100157.03;;;17.86;58.08
17615;BME280;8926;49.720;6.576;2022-07-05T02:16:54;100158.97;;;17.84;57.92
17615;BME280;8926;49.720;6.576;2022-07-05T02:19:20;100160.06;;;17.81;57.83
17615;BME280;8926;49.720;6.576;2022-07-05T02:21:45;100163.78;;;17.79;57.19
17615;BME280;8926;49.720;6.576;2022-07-05T02:24:10;100159.94;;;17.72;56.83
17615;BME280;8926;49.720;6.576;2022-07-05T02:26:36;100166.78;;;17.63;57.32
17615;BME280;8926;49.720;6.576;2022-07-05T02:29:03;100162.56;;;17.60;57.42
17615;BME280;8926;49.720;6.576;2022-07-05T02:31:28;100153.09;;;17.58;57.28
17615;BME280;8926;49.720;6.576;2022-07-05T02:33:53;100162.56;;;17.60;56.40
17615;BME280;8926;49.720;6.576;2022-07-05T02:36:19;100161.59;;;17.50;57.25
17615;BME280;8926;49.720;6.576;2022-07-05T02:38:44;100170.72;;;17.46;57.52
17615;BME280;8926;49.720;6.576;2022-07-05T02:41:11;100164.50;;;17.47;57.73
17615;BME280;8926;49.720;6.576;2022-07-05T02:43:37;100170.97;;;17.43;58.91
17615;BME280;8926;49.720;6.576;2022-07-05T02:46:04;100167.59;;;17.41;59.12
17615;BME280;8926;49.720;6.576;2022-07-05T02:48:31;100174.00;;;17.39;59.65
17615;BME280;8926;49.720;6.576;2022-07-05T02:50:56;100168.09;;;17.35;59.10
17615;BME280;8926;49.720;6.576;2022-07-05T02:53:22;100172.66;;;17.33;59.84
17615;BME280;8926;49.720;6.576;2022-07-05T02:55:48;100163.53;;;17.26;60.61
17615;BME280;8926;49.720;6.576;2022-07-05T02:58:13;100176.25;;;17.21;59.92
17615;BME280;8926;49.720;6.576;2022-07-05T03:00:38;100171.47;;;17.15;61.03
17615;BME280;8926;49.720;6.576;2022-07-05T03:03:03;100179.84;;;17.09;61.06
17615;BME280;8926;49.720;6.576;2022-07-05T03:05:29;100178.88;;;17.10;61.21
17615;BME280;8926;49.720;6.576;2022-07-05T03:07:54;100182.25;;;17.12;61.45
17615;BME280;8926;49.720;6.576;2022-07-05T03:10:19;100183.31;;;17.09;60.81
17615;BME280;8926;49.720;6.576;2022-07-05T03:12:45;100181.75;;;17.07;60.72
17615;BME280;8926;49.720;6.576;2022-07-05T03:15:10;100184.03;;;17.00;61.40
17615;BME280;8926;49.720;6.576;2022-07-05T03:17:35;100183.28;;;16.98;61.68
17615;BME280;8926;49.720;6.576;2022-07-05T03:20:01;100180.28;;;16.91;61.85
17615;BME280;8926;49.720;6.576;2022-07-05T03:22:26;100177.41;;;16.83;61.88
17615;BME280;8926;49.720;6.576;2022-07-05T03:24:51;100181.00;;;16.82;61.81
17615;BME280;8926;49.720;6.576;2022-07-05T03:27:17;100171.88;;;16.86;61.92
17615;BME280;8926;49.720;6.576;2022-07-05T03:29:42;100175.00;;;16.91;61.53
17615;BME280;8926;49.720;6.576;2022-07-05T03:32:07;100175.50;;;16.96;61.49
17615;BME280;8926;49.720;6.576;2022-07-05T03:34:33;100170.94;;;16.99;62.19
17615;BME280;8926;49.720;6.576;2022-07-05T03:36:58;100170.31;;;16.95;60.03
17615;BME280;8926;49.720;6.576;2022-07-05T03:39:23;100171.88;;;16.86;62.26
17615;BME280;8926;49.720;6.576;2022-07-05T03:41:49;100175.47;;;16.85;62.59
17615;BME280;8926;49.720;6.576;2022-07-05T03:44:14;100183.28;;;16.87;62.15
17615;BME280;8926;49.720;6.576;2022-07-05T03:46:39;100180.75;;;16.85;62.28
17615;BME280;8926;49.720;6.576;2022-07-05T03:49:04;100190.69;;;16.82;62.65
17615;BME280;8926;49.720;6.576;2022-07-05T03:51:30;100185.09;;;16.86;61.29
17615;BME280;8926;49.720;6.576;2022-07-05T03:53:55;100187.22;;;16.92;61.27
17615;BME280;8926;49.720;6.576;2022-07-05T03:56:20;100190.13;;;17.01;61.10
17615;BME280;8926;49.720;6.576;2022-07-05T03:58:48;100194.84;;;17.08;60.48
17615;BME280;8926;49.720;6.576;2022-07-05T04:01:14;100197.88;;;17.15;60.12
17615;BME280;8926;49.720;6.576;2022-07-05T04:03:39;100201.81;;;17.20;60.04
17615;BME280;8926;49.720;6.576;2022-07-05T04:06:05;100210.59;;;17.32;59.65
17615;BME280;8926;49.720;6.576;2022-07-05T04:08:31;100209.53;;;17.35;58.97
17615;BME280;8926;49.720;6.576;2022-07-05T04:10:56;100204.84;;;17.38;59.37
17615;BME280;8926;49.720;6.576;2022-07-05T04:13:21;100204.94;;;17.48;59.02
17615;BME280;8926;49.720;6.576;2022-07-05T04:15:47;100209.06;;;17.63;59.06
17615;BME280;8926;49.720;6.576;2022-07-05T04:18:12;100208.94;;;17.76;59.07
17615;BME280;8926;49.720;6.576;2022-07-05T04:20:37;100205.81;;;17.82;59.02
17615;BME280;8926;49.720;6.576;2022-07-05T04:23:03;100201.25;;;17.84;58.99
17615;BME280;8926;49.720;6.576;2022-07-05T04:25:29;100210.38;;;17.91;58.50
17615;BME280;8926;49.720;6.576;2022-07-05T04:27:55;100208.66;;;18.01;58.66
17615;BME280;8926;49.720;6.576;2022-07-05T04:30:22;100214.44;;;18.17;58.25
17615;BME280;8926;49.720;6.576;2022-07-05T04:32:47;100215.09;;;18.30;58.15
17615;BME280;8926;49.720;6.576;2022-07-05T04:35:13;100219.41;;;18.43;58.14
17615;BME280;8926;49.720;6.576;2022-07-05T04:37:39;100212.84;;;18.58;57.39
17615;BME280;8926;49.720;6.576;2022-07-05T04:40:07;100214.31;;;18.62;57.20
17615;BME280;8926;49.720;6.576;2022-07-05T04:42:34;100211.34;;;18.76;57.17
17615;BME280;8926;49.720;6.576;2022-07-05T04:44:59;100221.16;;;18.85;56.29
17615;BME280;8926;49.720;6.576;2022-07-05T04:47:25;100223.22;;;19.03;56.21
17615;BME280;8926;49.720;6.576;2022-07-05T04:49:54;100217.38;;;19.20;56.11
17615;BME280;8926;49.720;6.576;2022-07-05T04:52:20;100221.34;;;19.35;56.20
17615;BME280;8926;49.720;6.576;2022-07-05T04:54:45;100222.69;;;19.50;55.13
17615;BME280;8926;49.720;6.576;2022-07-05T04:57:11;100224.44;;;19.61;54.70
17615;BME280;8926;49.720;6.576;2022-07-05T04:59:37;100228.94;;;19.70;55.33
17615;BME280;8926;49.720;6.576;2022-07-05T05:02:02;100235.16;;;19.90;54.80
17615;BME280;8926;49.720;6.576;2022-07-05T05:04:28;100228.47;;;20.05;54.70
17615;BME280;8926;49.720;6.576;2022-07-05T05:06:53;100221.28;;;20.26;53.69
17615;BME280;8926;49.720;6.576;2022-07-05T05:09:18;100229.16;;;20.38;53.89
17615;BME280;8926;49.720;6.576;2022-07-05T05:11:43;100224.81;;;20.56;53.22
17615;BME280;8926;49.720;6.576;2022-07-05T05:14:09;100227.22;;;20.78;52.60
17615;BME280;8926;49.720;6.576;2022-07-05T05:16:34;100222.44;;;20.91;53.10
17615;BME280;8926;49.720;6.576;2022-07-05T05:18:59;100214.56;;;21.09;52.70
17615;BME280;8926;49.720;6.576;2022-07-05T05:21:25;100226.63;;;21.23;52.41
17615;BME280;8926;49.720;6.576;2022-07-05T05:23:50;100222.41;;;21.30;51.90
17615;BME280;8926;49.720;6.576;2022-07-05T05:26:15;100220.16;;;21.35;51.56
17615;BME280;8926;49.720;6.576;2022-07-05T05:28:40;100223.63;;;21.45;51.88
17615;BME280;8926;49.720;6.576;2022-07-05T05:31:06;100229.84;;;21.63;51.33
17615;BME280;8926;49.720;6.576;2022-07-05T05:33:32;100227.56;;;21.78;51.02
17615;BME280;8926;49.720;6.576;2022-07-05T05:35:57;100228.34;;;21.88;50.87
17615;BME280;8926;49.720;6.576;2022-07-05T05:38:23;100235.56;;;22.06;50.67
17615;BME280;8926;49.720;6.576;2022-07-05T05:40:48;100242.56;;;22.07;50.31
17615;BME280;8926;49.720;6.576;2022-07-05T05:43:14;100238.44;;;21.85;50.88
17615;BME280;8926;49.720;6.576;2022-07-05T05:45:39;100239.19;;;21.77;51.19
17615;BME280;8926;49.720;6.576;2022-07-05T05:48:05;100242.91;;;21.84;51.10
17615;BME280;8926;49.720;6.576;2022-07-05T05:50:32;100237.25;;;21.97;50.83
17615;BME280;8926;49.720;6.576;2022-07-05T05:52:59;100238.38;;;22.04;50.51
17615;BME280;8926;49.720;6.576;2022-07-05T05:55:26;100239.66;;;22.27;50.37
17615;BME280;8926;49.720;6.576;2022-07-05T05:57:52;100241.19;;;22.48;50.20
17615;BME280;8926;49.720;6.576;2022-07-05T06:00:19;100232.66;;;22.62;49.56
17615;BME280;8926;49.720;6.576;2022-07-05T06:02:45;100230.31;;;22.77;49.09
17615;BME280;8926;49.720;6.576;2022-07-05T06:05:11;100234.66;;;22.95;48.63
17615;BME280;8926;49.720;6.576;2022-07-05T06:08:03;100239.06;;;23.05;48.42
17615;BME280;8926;49.720;6.576;2022-07-05T06:10:30;100239.16;;;23.21;48.23
17615;BME280;8926;49.720;6.576;2022-07-05T06:12:58;100236.56;;;23.29;47.89
17615;BME280;8926;49.720;6.576;2022-07-05T06:15:24;100240.53;;;23.25;47.69
17615;BME280;8926;49.720;6.576;2022-07-05T06:17:50;100244.19;;;23.24;47.79
17615;BME280;8926;49.720;6.576;2022-07-05T06:20:18;100232.78;;;23.14;48.14
17615;BME280;8926;49.720;6.576;2022-07-05T06:22:44;100236.56;;;23.29;48.00
17615;BME280;8926;49.720;6.576;2022-07-05T06:25:10;100240.00;;;23.47;47.60
17615;BME280;8926;49.720;6.576;2022-07-05T06:27:43;100240.00;;;23.47;47.03
17615;BME280;8926;49.720;6.576;2022-07-05T06:30:10;100235.75;;;23.54;47.09
17615;BME280;8926;49.720;6.576;2022-07-05T06:32:38;100236.66;;;23.45;47.26
17615;BME280;8926;49.720;6.576;2022-07-05T06:35:03;100243.16;;;23.68;46.87
17615;BME280;8926;49.720;6.576;2022-07-05T06:37:40;100242.66;;;24.07;46.24
17615;BME280;8926;49.720;6.576;2022-07-05T06:40:07;100241.75;;;24.32;45.39
17615;BME280;8926;49.720;6.576;2022-07-05T06:42:33;100241.47;;;24.60;44.58
17615;BME280;8926;49.720;6.576;2022-07-05T06:44:59;100244.84;;;24.62;44.70
17615;BME280;8926;49.720;6.576;2022-07-05T06:47:24;100244.09;;;24.44;44.87
17615;BME280;8926;49.720;6.576;2022-07-05T06:49:49;100237.78;;;24.37;45.08
17615;BME280;8926;49.720;6.576;2022-07-05T06:52:15;100239.13;;;24.41;45.24
17615;BME280;8926;49.720;6.576;2022-07-05T06:54:40;100243.50;;;24.66;44.85
17615;BME280;8926;49.720;6.576;2022-07-05T06:57:05;100237.47;;;24.72;44.22
17615;BME280;8926;49.720;6.576;2022-07-05T06:59:30;100234.16;;;24.94;44.05
17615;BME280;8926;49.720;6.576;2022-07-05T07:01:56;100231.34;;;25.20;43.37
17615;BME280;8926;49.720;6.576;2022-07-05T07:04:21;100233.13;;;25.44;41.82
17615;BME280;8926;49.720;6.576;2022-07-05T07:06:46;100236.25;;;25.72;42.45
17615;BME280;8926;49.720;6.576;2022-07-05T07:09:11;100224.06;;;26.00;41.39
17615;BME280;8926;49.720;6.576;2022-07-05T07:11:43;100229.13;;;26.26;41.33
17615;BME280;8926;49.720;6.576;2022-07-05T07:14:09;100224.72;;;26.42;41.32
17615;BME280;8926;49.720;6.576;2022-07-05T07:16:34;100230.78;;;26.35;40.09
17615;BME280;8926;49.720;6.576;2022-07-05T07:19:00;100230.97;;;26.57;40.44
17615;BME280;8926;49.720;6.576;2022-07-05T07:21:25;100228.59;;;26.62;39.59
17615;BME280;8926;49.720;6.576;2022-07-05T07:23:50;100238.66;;;26.60;39.92
17615;BME280;8926;49.720;6.576;2022-07-05T07:26:15;100228.53;;;26.70;40.00
17615;BME280;8926;49.720;6.576;2022-07-05T07:28:41;100226.38;;;26.88;38.74
17615;BME280;8926;49.720;6.576;2022-07-05T07:31:06;100231.00;;;26.94;38.80
17615;BME280;8926;49.720;6.576;2022-07-05T07:33:32;100231.44;;;26.83;38.67
17615;BME280;8926;49.720;6.576;2022-07-05T07:35:58;100226.56;;;26.64;39.05
17615;BME280;8926;49.720;6.576;2022-07-05T07:38:23;100229.41;;;26.85;38.42
17615;BME280;8926;49.720;6.576;2022-07-05T07:40:49;100230.59;;;27.06;39.23
17615;BME280;8926;49.720;6.576;2022-07-05T07:43:15;100230.75;;;27.27;38.40
17615;BME280;8926;49.720;6.576;2022-07-05T07:45:40;100228.47;;;27.53;38.03
17615;BME280;8926;49.720;6.576;2022-07-05T07:48:05;100225.31;;;27.64;38.69
17615;BME280;8926;49.720;6.576;2022-07-05T07:50:31;100223.47;;;27.50;38.51
17615;BME280;8926;49.720;6.576;2022-07-05T07:52:56;100221.78;;;27.49;37.96
17615;BME280;8926;49.720;6.576;2022-07-05T07:55:21;100224.03;;;27.60;37.74
17615;BME280;8926;49.720;6.576;2022-07-05T07:57:46;100229.22;;;27.77;37.95
17615;BME280;8926;49.720;6.576;2022-07-05T08:00:12;100227.25;;;27.85;37.50
17615;BME280;8926;49.720;6.576;2022-07-05T08:02:37;100221.75;;;28.08;36.83
17615;BME280;8926;49.720;6.576;2022-07-05T08:05:03;100221.84;;;28.15;37.12
17615;BME280;8926;49.720;6.576;2022-07-05T08:07:30;100220.16;;;28.14;37.37
17615;BME280;8926;49.720;6.576;2022-07-05T08:09:55;100222.66;;;28.15;37.05
17615;BME280;8926;49.720;6.576;2022-07-05T08:12:20;100226.69;;;28.41;36.22
17615;BME280;8926;49.720;6.576;2022-07-05T08:14:46;100226.97;;;28.67;35.86
17615;BME280;8926;49.720;6.576;2022-07-05T08:17:12;100217.66;;;28.84;35.80
17615;BME280;8926;49.720;6.576;2022-07-05T08:19:38;100210.25;;;28.93;35.03
17615;BME280;8926;49.720;6.576;2022-07-05T08:22:23;100207.06;;;29.11;35.61
17615;BME280;8926;49.720;6.576;2022-07-05T08:24:49;100200.63;;;29.33;35.20
17615;BME280;8926;49.720;6.576;2022-07-05T08:27:14;100198.72;;;29.27;33.85
17615;BME280;8926;49.720;6.576;2022-07-05T08:29:41;100201.66;;;29.04;34.34
17615;BME280;8926;49.720;6.576;2022-07-05T08:32:08;100204.88;;;28.71;35.45
17615;BME280;8926;49.720;6.576;2022-07-05T08:34:33;100200.22;;;28.80;35.54
17615;BME280;8926;49.720;6.576;2022-07-05T08:36:59;100197.88;;;28.98;34.47
17615;BME280;8926;49.720;6.576;2022-07-05T08:39:24;100186.53;;;29.31;35.33
17615;BME280;8926;49.720;6.576;2022-07-05T08:41:51;100189.53;;;29.43;34.71
17615;BME280;8926;49.720;6.576;2022-07-05T08:44:21;100185.50;;;29.66;33.82
17615;BME280;8926;49.720;6.576;2022-07-05T08:46:49;100186.28;;;29.54;32.62
17615;BME280;8926;49.720;6.576;2022-07-05T08:49:20;100185.50;;;29.66;33.07
17615;BME280;8926;49.720;6.576;2022-07-05T08:51:46;100181.13;;;30.00;33.24
17615;BME280;8926;49.720;6.576;2022-07-05T08:54:12;100184.91;;;30.25;32.60
17615;BME280;8926;49.720;6.576;2022-07-05T08:56:41;100182.47;;;30.37;31.23
17615;BME280;8926;49.720;6.576;2022-07-05T08:59:06;100178.88;;;29.69;31.80
17615;BME280;8926;49.720;6.576;2022-07-05T09:01:32;100192.19;;;28.87;33.19
17615;BME280;8926;49.720;6.576;2022-07-05T09:04:02;100184.47;;;29.33;33.17
17615;BME280;8926;49.720;6.576;2022-07-05T09:06:31;100178.06;;;29.68;32.24
17615;BME280;8926;49.720;6.576;2022-07-05T09:08:58;100188.06;;;29.81;32.35
17615;BME280;8926;49.720;6.576;2022-07-05T09:11:28;100190.06;;;30.07;31.92
17615;BME280;8926;49.720;6.576;2022-07-05T09:13:55;100183.16;;;29.98;31.10
17615;BME280;8926;49.720;6.576;2022-07-05T09:16:21;100172.09;;;29.80;31.92
17615;BME280;8926;49.720;6.576;2022-07-05T09:18:47;100174.41;;;29.83;32.50
17615;BME280;8926;49.720;6.576;2022-07-05T09:23:41;100175.53;;;29.26;32.46
17615;BME280;8926;49.720;6.576;2022-07-05T09:26:08;100184.06;;;28.80;33.16
17615;BME280;8926;49.720;6.576;2022-07-05T09:28:33;100182.53;;;28.92;32.25
17615;BME280;8926;49.720;6.576;2022-07-05T09:30:59;100183.59;;;29.26;32.60
17615;BME280;8926;49.720;6.576;2022-07-05T09:33:24;100185.78;;;29.44;31.54
17615;BME280;8926;49.720;6.576;2022-07-05T09:35:54;100180.22;;;29.86;31.37
17615;BME280;8926;49.720;6.576;2022-07-05T09:38:22;100177.84;;;30.18;31.31
17615;BME280;8926;49.720;6.576;2022-07-05T09:40:59;100183.59;;;29.54;31.99
17615;BME280;8926;49.720;6.576;2022-07-05T09:43:28;100181.81;;;29.74;32.07
17615;BME280;8926;49.720;6.576;2022-07-05T09:45:59;100189.72;;;29.13;32.90
17615;BME280;8926;49.720;6.576;2022-07-05T09:48:25;100177.13;;;28.92;33.11
17615;BME280;8926;49.720;6.576;2022-07-05T09:50:51;100184.28;;;29.34;32.46
17615;BME280;8926;49.720;6.576;2022-07-05T09:53:19;100170.28;;;29.87;33.03
17615;BME280;8926;49.720;6.576;2022-07-05T09:56:03;100173.25;;;30.05;32.44
17615;BME280;8926;49.720;6.576;2022-07-05T09:58:30;100175.63;;;30.34;31.96
17615;BME280;8926;49.720;6.576;2022-07-05T10:00:55;100175.63;;;30.34;31.13
17615;BME280;8926;49.720;6.576;2022-07-05T10:03:21;100171.69;;;30.37;30.68
17615;BME280;8926;49.720;6.576;2022-07-05T10:05:46;100163.78;;;30.35;29.46
17615;BME280;8926;49.720;6.576;2022-07-05T10:08:12;100165.56;;;30.02;29.67
17615;BME280;8926;49.720;6.576;2022-07-05T10:10:38;100168.66;;;29.99;30.33
17615;BME280;8926;49.720;6.576;2022-07-05T10:13:04;100174.91;;;29.58;29.81
17615;BME280;8926;49.720;6.576;2022-07-05T10:15:33;100179.16;;;29.81;29.64
17615;BME280;8926;49.720;6.576;2022-07-05T10:18:03;100179.53;;;30.25;28.89
17615;BME280;8926;49.720;6.576;2022-07-05T10:20:33;100163.44;;;30.65;28.90
17615;BME280;8926;49.720;6.576;2022-07-05T10:23:01;100161.97;;;30.82;29.23
17615;BME280;8926;49.720;6.576;2022-07-05T10:25:28;100166.72;;;30.67;27.49
17615;BME280;8926;49.720;6.576;2022-07-05T10:27:54;100160.09;;;30.89;29.38
17615;BME280;8926;49.720;6.576;2022-07-05T10:30:21;100161.53;;;30.98;29.35
17615;BME280;8926;49.720;6.576;2022-07-05T10:32:48;100161.34;;;31.13;28.31
17615;BME280;8926;49.720;6.576;2022-07-05T10:35:15;100157.16;;;31.24;28.33
17615;BME280;8926;49.720;6.576;2022-07-05T10:37:42;100158.38;;;31.41;29.47
17615;BME280;8926;49.720;6.576;2022-07-05T10:40:08;100157.91;;;31.51;29.43
17615;BME280;8926;49.720;6.576;2022-07-05T10:42:43;100159.25;;;31.22;28.49
17615;BME280;8926;49.720;6.576;2022-07-05T10:45:36;100167.16;;;30.77;29.61
17615;BME280;8926;49.720;6.576;2022-07-05T10:53:15;100157.41;;;31.16;28.75
17615;BME280;8926;49.720;6.576;2022-07-05T10:55:53;100158.38;;;31.34;28.45
17615;BME280;8926;49.720;6.576;2022-07-05T10:58:21;100155.47;;;31.36;27.42
17615;BME280;8926;49.720;6.576;2022-07-05T11:00:48;100150.44;;;31.46;27.90
17615;BME280;8926;49.720;6.576;2022-07-05T11:03:37;100138.38;;;31.49;27.26
17615;BME280;8926;49.720;6.576;2022-07-05T11:06:03;100146.34;;;31.24;27.55
17615;BME280;8926;49.720;6.576;2022-07-05T11:08:29;100128.50;;;31.23;27.23
17615;BME280;8926;49.720;6.576;2022-07-05T11:11:09;100136.22;;;31.13;27.68
17615;BME280;8926;49.720;6.576;2022-07-05T11:13:36;100133.94;;;30.70;27.04
17615;BME280;8926;49.720;6.576;2022-07-05T11:16:31;100149.22;;;30.10;28.17
17615;BME280;8926;49.720;6.576;2022-07-05T11:21:33;100140.78;;;30.99;28.74
17615;BME280;8926;49.720;6.576;2022-07-05T11:24:26;100135.56;;;31.24;27.65
17615;BME280;8926;49.720;6.576;2022-07-05T11:26:57;100136.78;;;31.28;27.57
17615;BME280;8926;49.720;6.576;2022-07-05T11:29:42;100129.81;;;30.74;27.95
17615;BME280;8926;49.720;6.576;2022-07-05T11:32:11;100134.31;;;30.41;28.00
17615;BME280;8926;49.720;6.576;2022-07-05T11:34:39;100142.56;;;30.06;29.72
17615;BME280;8926;49.720;6.576;2022-07-05T11:39:38;100134.75;;;30.37;30.05
17615;BME280;8926;49.720;6.576;2022-07-05T11:42:04;100117.34;;;30.73;29.08
17615;BME280;8926;49.720;6.576;2022-07-05T11:44:32;100120.66;;;30.82;27.62
17615;BME280;8926;49.720;6.576;2022-07-05T11:46:59;100124.84;;;30.58;27.78
17615;BME280;8926;49.720;6.576;2022-07-05T11:49:24;100115.28;;;30.75;26.99
17615;BME280;8926;49.720;6.576;2022-07-05T11:51:57;100122.31;;;30.89;28.97
17615;BME280;8926;49.720;6.576;2022-07-05T11:54:31;100119.38;;;31.11;28.41
17615;BME280;8926;49.720;6.576;2022-07-05T11:56:57;100128.97;;;30.87;28.17
17615;BME280;8926;49.720;6.576;2022-07-05T11:59:24;100121.69;;;30.54;29.04
17615;BME280;8926;49.720;6.576;2022-07-05T12:01:50;100113.16;;;30.44;30.02
17615;BME280;8926;49.720;6.576;2022-07-05T12:04:26;100107.97;;;30.43;30.27
17615;BME280;8926;49.720;6.576;2022-07-05T12:06:52;100113.00;;;30.59;29.82
17615;BME280;8926;49.720;6.576;2022-07-05T12:09:26;100109.47;;;30.78;29.55
17615;BME280;8926;49.720;6.576;2022-07-05T12:11:55;100096.81;;;30.85;28.50
17615;BME280;8926;49.720;6.576;2022-07-05T12:14:47;100104.47;;;30.49;28.03
17615;BME280;8926;49.720;6.576;2022-07-05T12:17:20;100092.44;;;30.38;27.42
17615;BME280;8926;49.720;6.576;2022-07-05T12:19:45;100092.00;;;30.15;26.38
17615;BME280;8926;49.720;6.576;2022-07-05T12:22:11;100086.09;;;29.78;26.29
17615;BME280;8926;49.720;6.576;2022-07-05T12:24:38;100100.72;;;29.49;26.22
17615;BME280;8926;49.720;6.576;2022-07-05T12:27:04;100094.50;;;29.14;27.23
17615;BME280;8926;49.720;6.576;2022-07-05T12:29:30;100096.19;;;29.22;27.21
17615;BME280;8926;49.720;6.576;2022-07-05T12:34:26;100090.47;;;29.86;27.36
17615;BME280;8926;49.720;6.576;2022-07-05T12:36:51;100084.97;;;30.14;26.86
17615;BME280;8926;49.720;6.576;2022-07-05T12:39:17;100084.16;;;30.40;27.61
17615;BME280;8926;49.720;6.576;2022-07-05T12:41:42;100090.75;;;30.44;28.13
17615;BME280;8926;49.720;6.576;2022-07-05T12:44:08;100087.44;;;30.42;27.64
17615;BME280;8926;49.720;6.576;2022-07-05T12:46:36;100087.03;;;30.45;26.67
17615;BME280;8926;49.720;6.576;2022-07-05T12:49:02;100088.28;;;30.22;27.53
17615;BME280;8926;49.720;6.576;2022-07-05T12:51:35;100085.56;;;30.09;26.78
17615;BME280;8926;49.720;6.576;2022-07-05T12:54:02;100078.75;;;30.13;27.69
17615;BME280;8926;49.720;6.576;2022-07-05T12:56:47;100081.44;;;30.13;27.52
17615;BME280;8926;49.720;6.576;2022-07-05T12:59:30;100093.28;;;30.38;27.81
17615;BME280;8926;49.720;6.576;2022-07-05T13:01:56;100089.53;;;30.53;28.28
17615;BME280;8926;49.720;6.576;2022-07-05T13:04:21;100079.19;;;30.63;28.42
17615;BME280;8926;49.720;6.576;2022-07-05T13:09:14;100078.38;;;30.62;28.39
17615;BME280;8926;49.720;6.576;2022-07-05T13:11:40;100073.59;;;30.58;26.33
17615;BME280;8926;49.720;6.576;2022-07-05T13:14:05;100065.50;;;30.58;27.28
17615;BME280;8926;49.720;6.576;2022-07-05T13:16:31;100066.91;;;30.54;27.98